createdAt,value
2019-04-13T00:02:02.598Z,11.60
2019-04-13T00:04:41.873Z,13.27
2019-04-13T00:07:10.898Z,11.60
2019-04-13T00:09:39.744Z,11.97
2019-04-13T00:12:18.213Z,13.20
2019-04-13T00:14:47.148Z,12.83
2019-04-13T00:17:16.368Z,13.20
2019-04-13T00:19:45.380Z,14.00
2019-04-13T00:22:14.369Z,12.73
2019-04-13T00:24:43.532Z,13.83
2019-04-13T00:27:12.537Z,13.80
2019-04-13T00:29:41.497Z,13.30
2019-04-13T00:32:10.502Z,13.80
2019-04-13T00:34:41.553Z,12.30
2019-04-13T00:37:10.118Z,12.50
2019-04-13T00:39:39.120Z,13.10
2019-04-13T00:42:08.126Z,11.80
2019-04-13T00:44:37.097Z,12.80
2019-04-13T00:47:06.029Z,13.00
2019-04-13T00:49:35.180Z,12.23
2019-04-13T00:52:04.181Z,12.83
2019-04-13T00:54:33.370Z,13.40
2019-04-13T00:57:02.472Z,12.87
2019-04-13T00:59:31.565Z,13.03
2019-04-13T01:02:00.482Z,12.97
2019-04-13T01:04:29.414Z,12.80
2019-04-13T01:06:58.541Z,12.30
2019-04-13T01:09:27.732Z,13.90
2019-04-13T01:11:56.689Z,13.67
2019-04-13T01:14:25.689Z,13.80
2019-04-13T01:16:54.691Z,15.47
2019-04-13T01:19:23.628Z,14.00
2019-04-13T01:21:52.525Z,13.53
2019-04-13T01:24:21.371Z,14.37
2019-04-13T01:26:50.387Z,12.70
2019-04-13T01:29:19.320Z,14.47
2019-04-13T01:31:48.242Z,15.20
2019-04-13T01:34:17.362Z,12.57
2019-04-13T01:36:46.377Z,13.83
2019-04-13T01:39:15.331Z,14.20
2019-04-13T01:41:44.540Z,14.73
2019-04-13T01:44:13.457Z,15.50
2019-04-13T01:46:42.519Z,13.17
2019-04-13T01:49:11.523Z,14.20
2019-04-13T01:51:40.525Z,13.77
2019-04-13T01:54:09.844Z,13.40
2019-04-13T01:56:39.213Z,14.23
2019-04-13T01:59:08.201Z,15.40
2019-04-13T02:01:57.177Z,14.27
2019-04-13T02:04:44.083Z,13.67
2019-04-13T02:07:41.361Z,15.13
2019-04-13T02:10:14.248Z,14.60
2019-04-13T02:12:43.242Z,14.60
2019-04-13T02:15:12.637Z,14.90
2019-04-13T02:17:41.589Z,16.20
2019-04-13T02:20:10.896Z,15.80
2019-04-13T02:22:39.758Z,13.23
2019-04-13T02:25:08.761Z,15.00
2019-04-13T02:27:37.880Z,14.00
2019-04-13T02:30:08.368Z,13.60
2019-04-13T02:32:37.363Z,14.40
2019-04-13T02:35:07.002Z,14.47
2019-04-13T02:37:35.943Z,13.60
2019-04-13T02:40:06.622Z,13.40
2019-04-13T02:42:35.657Z,15.00
2019-04-13T02:45:05.002Z,13.50
2019-04-13T02:47:33.994Z,14.17
2019-04-13T02:50:03.122Z,14.33
2019-04-13T02:52:32.142Z,13.83
2019-04-13T02:55:01.081Z,13.77
2019-04-13T02:57:30.083Z,14.90
2019-04-13T02:59:59.189Z,14.90
2019-04-13T03:02:28.381Z,13.67
2019-04-13T03:04:57.478Z,14.63
2019-04-13T03:07:28.634Z,15.53
2019-04-13T03:09:57.210Z,16.10
2019-04-13T03:12:26.406Z,16.07
2019-04-13T03:14:55.656Z,15.53
2019-04-13T03:17:35.975Z,16.67
2019-04-13T03:20:08.384Z,14.93
2019-04-13T03:22:37.543Z,14.33
2019-04-13T03:25:06.654Z,14.47
2019-04-13T03:27:35.649Z,15.60
2019-04-13T03:30:04.881Z,15.53
2019-04-13T03:32:33.800Z,15.50
2019-04-13T03:35:02.801Z,15.17
2019-04-13T03:37:31.802Z,15.53
2019-04-13T03:40:00.717Z,14.00
2019-04-13T03:42:29.653Z,12.60
2019-04-13T03:44:58.954Z,15.97
2019-04-13T03:47:27.795Z,16.33
2019-04-13T03:49:56.723Z,15.20
2019-04-13T03:52:25.720Z,15.67
2019-04-13T03:54:54.574Z,17.53
2019-04-13T03:57:23.441Z,15.43
2019-04-13T03:59:52.437Z,15.67
2019-04-13T04:02:21.473Z,16.57
2019-04-13T04:04:50.495Z,16.47
2019-04-13T04:07:19.334Z,15.87
2019-04-13T04:09:48.329Z,15.90
2019-04-13T04:12:17.433Z,16.47
2019-04-13T04:14:46.456Z,18.17
2019-04-13T04:17:15.305Z,16.73
2019-04-13T04:19:44.180Z,17.87
2019-04-13T04:22:14.801Z,17.10
2019-04-13T04:24:43.724Z,19.37
2019-04-13T04:27:12.688Z,17.60
2019-04-13T04:29:41.614Z,16.90
2019-04-13T04:32:10.599Z,18.13
2019-04-13T04:34:39.543Z,17.10
2019-04-13T04:37:08.423Z,19.70
2019-04-13T04:39:37.269Z,16.20
2019-04-13T04:42:06.124Z,19.07
2019-04-13T04:44:35.122Z,17.00
2019-04-13T04:47:04.122Z,19.20
2019-04-13T04:49:33.070Z,18.10
2019-04-13T04:52:01.969Z,19.67
2019-04-13T04:54:30.966Z,22.07
2019-04-13T04:57:00.089Z,19.70
2019-04-13T04:59:29.048Z,20.67
2019-04-13T05:01:57.972Z,19.90
2019-04-13T05:04:26.993Z,19.17
2019-04-13T05:06:55.846Z,20.83
2019-04-13T05:09:24.834Z,20.97
2019-04-13T05:11:53.856Z,19.97
2019-04-13T05:14:22.708Z,20.60
2019-04-13T05:16:51.713Z,19.70
2019-04-13T05:19:20.682Z,20.87
2019-04-13T05:21:49.593Z,20.33
2019-04-13T05:24:18.589Z,21.50
2019-04-13T05:26:47.614Z,22.03
2019-04-13T05:29:16.456Z,21.50
2019-04-13T05:31:45.446Z,20.30
2019-04-13T05:34:14.381Z,22.37
2019-04-13T05:36:47.763Z,19.70
2019-04-13T05:39:13.953Z,19.90
2019-04-13T05:41:43.235Z,20.70
2019-04-13T05:44:12.152Z,20.17
2019-04-13T05:46:41.144Z,20.43
2019-04-13T05:49:09.998Z,21.87
2019-04-13T05:51:38.997Z,20.03
2019-04-13T05:54:08.272Z,21.07
2019-04-13T05:56:37.222Z,20.10
2019-04-13T05:59:06.219Z,21.93
2019-04-13T06:01:35.069Z,20.17
2019-04-13T06:04:05.655Z,22.73
2019-04-13T06:06:34.914Z,21.57
2019-04-13T06:09:06.541Z,23.10
2019-04-13T06:11:36.040Z,22.97
2019-04-13T06:14:05.625Z,22.53
2019-04-13T06:16:34.561Z,22.90
2019-04-13T06:19:03.581Z,23.70
2019-04-13T06:21:32.580Z,24.33
2019-04-13T06:24:01.577Z,21.57
2019-04-13T06:26:30.664Z,22.50
2019-04-13T06:28:59.666Z,21.90
2019-04-13T06:31:56.615Z,22.63
2019-04-13T06:34:45.171Z,22.10
2019-04-13T06:37:16.136Z,23.17
2019-04-13T06:39:44.701Z,24.07
2019-04-13T06:42:16.124Z,21.37
2019-04-13T06:44:44.266Z,22.47
2019-04-13T06:47:13.193Z,23.20
2019-04-13T06:49:42.124Z,23.10
2019-04-13T06:52:11.065Z,22.27
2019-04-13T06:54:40.858Z,21.77
2019-04-13T06:57:10.605Z,22.80
2019-04-13T06:59:39.907Z,22.37
2019-04-13T07:02:08.875Z,22.83
2019-04-13T07:04:40.373Z,24.80
2019-04-13T07:07:23.574Z,22.43
2019-04-13T07:09:49.337Z,22.37
2019-04-13T07:12:24.847Z,24.03
2019-04-13T07:14:53.722Z,23.73
2019-04-13T07:17:28.474Z,23.23
2019-04-13T07:19:57.416Z,21.90
2019-04-13T07:22:26.352Z,22.47
2019-04-13T07:24:55.413Z,21.43
2019-04-13T07:27:24.273Z,22.10
2019-04-13T07:29:53.474Z,22.53
2019-04-13T07:32:22.753Z,23.57
2019-04-13T07:34:51.670Z,21.47
2019-04-13T07:37:20.858Z,22.43
2019-04-13T07:39:49.880Z,24.40
2019-04-13T07:42:18.968Z,25.10
2019-04-13T07:45:07.277Z,23.27
2019-04-13T07:47:49.018Z,22.00
2019-04-13T07:50:36.707Z,23.23
2019-04-13T07:53:09.538Z,24.00
2019-04-13T07:55:38.599Z,23.70
2019-04-13T07:58:10.421Z,22.97
2019-04-13T08:00:38.934Z,23.60
2019-04-13T08:03:07.877Z,23.07
2019-04-13T08:05:36.834Z,24.57
2019-04-13T08:08:05.764Z,22.83
2019-04-13T08:10:34.828Z,24.00
2019-04-13T08:13:03.798Z,25.03
2019-04-13T08:15:33.624Z,24.63
2019-04-13T08:18:02.624Z,25.00
2019-04-13T08:20:34.271Z,24.57
2019-04-13T08:23:04.261Z,25.83
2019-04-13T08:25:41.541Z,25.00
2019-04-13T08:28:15.042Z,25.37
2019-04-13T08:30:42.779Z,23.77
2019-04-13T08:33:11.879Z,25.83
2019-04-13T08:35:42.513Z,26.10
2019-04-13T08:38:12.994Z,26.90
2019-04-13T08:40:46.237Z,25.60
2019-04-13T08:43:13.084Z,25.60
2019-04-13T08:45:44.186Z,25.10
2019-04-13T08:48:12.850Z,25.70
2019-04-13T08:50:41.782Z,24.80
2019-04-13T08:53:10.705Z,25.67
2019-04-13T08:55:40.242Z,27.27
2019-04-13T08:58:09.349Z,24.23
2019-04-13T09:00:38.358Z,25.73
2019-04-13T09:03:07.449Z,26.80
2019-04-13T09:05:36.649Z,26.00
2019-04-13T09:08:05.707Z,24.57
2019-04-13T09:10:35.262Z,25.00
2019-04-13T09:13:04.633Z,27.63
2019-04-13T09:15:34.000Z,25.93
2019-04-13T09:18:18.614Z,24.40
2019-04-13T09:20:52.609Z,26.17
2019-04-13T09:23:21.590Z,26.10
2019-04-13T09:25:50.506Z,25.50
2019-04-13T09:28:19.462Z,26.17
2019-04-13T09:30:52.174Z,26.70
2019-04-13T09:33:19.378Z,25.13
2019-04-13T09:35:48.233Z,28.33
2019-04-13T09:38:17.384Z,28.60
2019-04-13T09:40:46.366Z,26.80
2019-04-13T09:43:22.872Z,27.73
2019-04-13T09:45:51.827Z,26.53
2019-04-13T09:48:20.749Z,27.83
2019-04-13T09:50:49.634Z,28.53
2019-04-13T09:53:19.789Z,31.00
2019-04-13T09:55:49.975Z,28.10
2019-04-13T09:58:19.558Z,30.37
2019-04-13T10:00:48.680Z,27.60
2019-04-13T10:03:17.738Z,28.37
2019-04-13T10:05:46.769Z,26.80
2019-04-13T10:08:20.248Z,27.90
2019-04-13T10:10:46.592Z,29.37
2019-04-13T10:13:40.720Z,26.70
2019-04-13T10:16:23.080Z,27.93
2019-04-13T10:18:55.281Z,28.37
2019-04-13T10:21:24.189Z,28.20
2019-04-13T10:23:53.229Z,34.67
2019-04-13T10:26:22.181Z,27.43
2019-04-13T10:28:51.036Z,29.93
2019-04-13T10:31:19.965Z,28.67
2019-04-13T10:33:48.881Z,29.17
2019-04-13T10:36:17.854Z,27.87
2019-04-13T10:38:46.749Z,27.90
2019-04-13T10:41:15.785Z,27.47
2019-04-13T10:43:44.712Z,30.57
2019-04-13T10:46:24.411Z,29.93
2019-04-13T10:49:12.491Z,28.80
2019-04-13T10:51:47.250Z,30.17
2019-04-13T10:54:16.356Z,30.20
2019-04-13T10:56:45.416Z,29.70
2019-04-13T10:59:14.449Z,30.37
2019-04-13T11:01:43.718Z,29.93
2019-04-13T11:04:12.762Z,33.07
2019-04-13T11:06:41.797Z,34.70
2019-04-13T11:09:21.407Z,30.67
2019-04-13T11:11:44.088Z,32.10
2019-04-13T11:14:13.221Z,30.27
2019-04-13T11:16:42.713Z,28.63
2019-04-13T11:19:11.788Z,33.50
2019-04-13T11:21:40.883Z,29.23
2019-04-13T11:24:09.977Z,29.03
2019-04-13T11:26:38.980Z,30.57
2019-04-13T11:29:10.804Z,31.20
2019-04-13T11:31:38.770Z,30.27
2019-04-13T11:34:07.790Z,31.07
2019-04-13T11:36:37.000Z,29.10
2019-04-13T11:39:07.561Z,32.83
2019-04-13T11:42:03.860Z,32.47
2019-04-13T11:44:50.095Z,32.10
2019-04-13T11:47:34.746Z,32.40
2019-04-13T11:50:04.016Z,31.30
2019-04-13T11:52:32.897Z,32.67
2019-04-13T11:55:02.010Z,30.77
2019-04-13T11:57:30.983Z,31.73
2019-04-13T11:59:59.997Z,34.40
2019-04-13T12:02:42.186Z,33.10
2019-04-13T12:05:36.314Z,32.90
2019-04-13T12:08:10.015Z,32.23
2019-04-13T12:10:50.100Z,31.03
2019-04-13T12:13:31.742Z,31.63
2019-04-13T12:16:26.965Z,34.23
2019-04-13T12:19:11.581Z,33.40
2019-04-13T12:22:00.401Z,32.20
2019-04-13T12:24:33.404Z,30.93
2019-04-13T12:27:02.401Z,33.47
2019-04-13T12:29:31.794Z,33.70
2019-04-13T12:32:01.535Z,31.77
2019-04-13T12:34:30.615Z,34.60
2019-04-13T12:37:01.042Z,32.97
2019-04-13T12:39:30.363Z,33.67
2019-04-13T12:42:05.658Z,33.47
2019-04-13T12:44:37.612Z,35.27
2019-04-13T12:47:04.761Z,33.23
2019-04-13T12:49:33.788Z,33.47
2019-04-13T12:52:02.887Z,33.10
2019-04-13T12:54:31.764Z,35.03
2019-04-13T12:57:00.670Z,34.67
2019-04-13T12:59:29.755Z,32.80
2019-04-13T13:02:26.736Z,32.70
2019-04-13T13:05:13.389Z,31.70
2019-04-13T13:07:42.607Z,32.23
2019-04-13T13:10:15.497Z,29.47
2019-04-13T13:12:45.410Z,29.30
2019-04-13T13:15:14.166Z,29.73
2019-04-13T13:17:43.130Z,29.67
2019-04-13T13:20:16.547Z,29.37
2019-04-13T13:22:43.261Z,29.67
2019-04-13T13:25:13.969Z,31.17
2019-04-13T13:27:43.347Z,30.50
2019-04-13T13:30:12.505Z,29.47
2019-04-13T13:32:41.461Z,30.30
2019-04-13T13:35:10.801Z,31.17
2019-04-13T13:37:40.661Z,30.50
2019-04-13T13:40:09.762Z,29.67
2019-04-13T13:42:39.297Z,31.27
2019-04-13T13:45:08.720Z,29.63
2019-04-13T13:47:37.572Z,29.67
2019-04-13T13:50:07.985Z,31.63
2019-04-13T13:52:38.126Z,27.77
2019-04-13T13:55:07.615Z,28.23
2019-04-13T13:57:38.728Z,28.43
2019-04-13T14:00:12.237Z,27.80
2019-04-13T14:02:41.377Z,29.30
2019-04-13T14:05:10.538Z,26.87
2019-04-13T14:07:39.733Z,30.57
2019-04-13T14:10:15.858Z,29.97
2019-04-13T14:12:45.469Z,29.80
2019-04-13T14:15:15.279Z,29.73
2019-04-13T14:17:44.310Z,28.90
2019-04-13T14:20:13.812Z,30.27
2019-04-13T14:22:42.886Z,29.33
2019-04-13T14:25:11.941Z,31.50
2019-04-13T14:27:40.869Z,29.47
2019-04-13T14:30:10.762Z,30.40
2019-04-13T14:32:39.777Z,30.37
2019-04-13T14:35:08.852Z,28.07
2019-04-13T14:37:37.772Z,30.50
2019-04-13T14:40:07.079Z,29.60
2019-04-13T14:42:36.189Z,30.20
2019-04-13T14:45:06.990Z,29.07
2019-04-13T14:47:36.668Z,29.60
2019-04-13T14:50:06.337Z,28.80
2019-04-13T14:52:35.282Z,32.63
2019-04-13T14:55:04.562Z,29.70
2019-04-13T14:57:33.587Z,30.67
2019-04-13T15:00:02.594Z,30.20
2019-04-13T15:02:31.629Z,30.40
2019-04-13T15:05:01.097Z,29.30
2019-04-13T15:07:30.464Z,31.53
2019-04-13T15:10:00.775Z,30.20
2019-04-13T15:12:29.787Z,29.23
2019-04-13T15:14:58.717Z,28.67
2019-04-13T15:17:28.027Z,26.33
2019-04-13T15:20:05.646Z,27.00
2019-04-13T15:22:27.596Z,29.03
2019-04-13T15:25:00.722Z,27.53
2019-04-13T15:27:27.354Z,29.07
2019-04-13T15:29:56.606Z,28.40
2019-04-13T15:32:30.011Z,30.80
2019-04-13T15:34:57.536Z,32.47
2019-04-13T15:37:27.662Z,28.70
2019-04-13T15:39:57.990Z,31.60
2019-04-13T15:42:37.042Z,29.93
2019-04-13T15:44:58.503Z,30.67
2019-04-13T15:47:29.550Z,29.70
2019-04-13T15:49:58.893Z,30.07
2019-04-13T15:52:28.433Z,29.60
2019-04-13T15:54:57.888Z,29.20
2019-04-13T15:57:26.892Z,29.27
2019-04-13T15:59:56.023Z,30.40
2019-04-13T16:02:25.643Z,31.13
2019-04-13T16:04:54.566Z,30.57
2019-04-13T16:07:23.803Z,29.53
2019-04-13T16:10:06.328Z,31.27
2019-04-13T16:12:41.238Z,29.53
2019-04-13T16:15:10.437Z,30.33
2019-04-13T16:17:40.258Z,30.47
2019-04-13T16:20:09.981Z,29.47
2019-04-13T16:22:38.928Z,30.53
2019-04-13T16:25:07.960Z,31.60
2019-04-13T16:27:44.527Z,32.70
2019-04-13T16:30:32.602Z,29.50
2019-04-13T16:33:24.561Z,31.60
2019-04-13T16:36:01.790Z,30.90
2019-04-13T16:38:32.133Z,31.87
2019-04-13T16:41:01.211Z,31.37
2019-04-13T16:43:34.390Z,29.83
2019-04-13T16:46:13.524Z,30.67
2019-04-13T16:49:07.699Z,30.80
2019-04-13T16:51:50.286Z,30.40
2019-04-13T16:54:25.416Z,31.57
2019-04-13T16:57:00.846Z,31.03
2019-04-13T16:59:47.793Z,31.80
2019-04-13T17:02:45.218Z,29.87
2019-04-13T17:05:15.982Z,30.63
2019-04-13T17:07:44.955Z,29.53
2019-04-13T17:10:14.943Z,31.43
2019-04-13T17:12:46.068Z,32.93
2019-04-13T17:15:14.897Z,34.53
2019-04-13T17:17:47.153Z,31.37
2019-04-13T17:20:22.679Z,31.73
2019-04-13T17:23:10.798Z,29.67
2019-04-13T17:26:02.372Z,32.20
2019-04-13T17:28:49.125Z,30.40
2019-04-13T17:31:26.329Z,32.37
2019-04-13T17:34:04.829Z,33.20
2019-04-13T17:36:36.251Z,29.80
2019-04-13T17:39:06.862Z,33.47
2019-04-13T17:41:47.993Z,31.63
2019-04-13T17:44:29.038Z,29.83
2019-04-13T17:47:08.148Z,30.43
2019-04-13T17:49:59.377Z,31.33
2019-04-13T17:52:59.609Z,31.37
2019-04-13T17:55:44.075Z,28.63
2019-04-13T17:58:31.799Z,31.27
2019-04-13T18:01:33.173Z,30.03
2019-04-13T18:04:24.214Z,30.57
2019-04-13T18:07:05.268Z,32.47
2019-04-13T18:09:48.613Z,31.73
2019-04-13T18:12:44.949Z,32.87
2019-04-13T18:15:28.452Z,30.97
2019-04-13T18:18:08.285Z,30.60
2019-04-13T18:20:38.475Z,32.20
2019-04-13T18:23:08.875Z,34.63
2019-04-13T18:25:44.148Z,38.17
2019-04-13T18:28:08.774Z,32.70
2019-04-13T18:30:41.396Z,73.30
2019-04-13T18:33:09.511Z,36.73
2019-04-13T18:35:42.443Z,43.27
2019-04-13T18:38:10.290Z,32.83
2019-04-13T18:40:40.782Z,33.60
2019-04-13T18:43:15.810Z,37.27
2019-04-13T18:45:41.171Z,33.70
2019-04-13T18:48:10.353Z,30.17
2019-04-13T18:50:39.453Z,30.67
2019-04-13T18:53:10.592Z,29.17
2019-04-13T18:55:40.899Z,28.53
2019-04-13T18:58:11.041Z,29.73
2019-04-13T19:00:40.495Z,30.40
2019-04-13T19:03:09.490Z,29.70
2019-04-13T19:05:38.511Z,28.43
2019-04-13T19:08:07.448Z,28.53
2019-04-13T19:10:36.490Z,29.77
2019-04-13T19:13:07.814Z,29.67
2019-04-13T19:15:36.217Z,30.07
2019-04-13T19:18:05.234Z,30.40
2019-04-13T19:20:34.261Z,33.07
2019-04-13T19:23:03.408Z,31.80
2019-04-13T19:25:32.418Z,32.60
2019-04-13T19:28:01.366Z,31.27
2019-04-13T19:30:30.297Z,30.83
2019-04-13T19:32:59.215Z,31.67
2019-04-13T19:35:28.883Z,31.70
2019-04-13T19:37:58.669Z,31.93
2019-04-13T19:40:27.591Z,33.07
2019-04-13T19:42:56.840Z,35.10
2019-04-13T19:45:25.831Z,33.40
2019-04-13T19:47:54.826Z,31.43
2019-04-13T19:50:23.816Z,36.07
2019-04-13T19:53:17.837Z,37.50
2019-04-13T19:55:46.848Z,35.00
2019-04-13T19:58:15.836Z,34.80
2019-04-13T20:00:48.630Z,34.33
2019-04-13T20:03:17.609Z,32.40
2019-04-13T20:05:46.697Z,32.50
2019-04-13T20:08:15.698Z,31.90
2019-04-13T20:10:44.714Z,34.03
2019-04-13T20:13:14.870Z,36.73
2019-04-13T20:15:44.450Z,42.67
2019-04-13T20:18:14.064Z,39.57
2019-04-13T20:20:43.058Z,40.70
2019-04-13T20:23:12.530Z,35.13
2019-04-13T20:25:41.794Z,30.23
2019-04-13T20:28:11.633Z,31.40
2019-04-13T20:30:41.332Z,32.00
2019-04-13T20:33:11.128Z,31.07
2019-04-13T20:35:52.304Z,31.10
2019-04-13T20:38:10.898Z,29.00
2019-04-13T20:40:57.856Z,32.33
2019-04-13T20:43:27.180Z,30.10
2019-04-13T20:45:57.406Z,30.43
2019-04-13T20:48:27.148Z,32.37
2019-04-13T20:50:56.759Z,31.37
2019-04-13T20:53:28.901Z,32.50
2019-04-13T20:55:58.860Z,36.20
2019-04-13T20:58:29.228Z,35.03
2019-04-13T21:00:59.406Z,35.97
2019-04-13T21:03:29.467Z,35.07
2019-04-13T21:05:58.385Z,36.93
2019-04-13T21:08:28.030Z,40.03
2019-04-13T21:10:57.181Z,40.07
2019-04-13T21:13:27.434Z,37.63
2019-04-13T21:15:57.513Z,40.50
2019-04-13T21:18:27.620Z,39.80
2019-04-13T21:20:57.788Z,39.20
2019-04-13T21:23:27.697Z,41.43
2019-04-13T21:25:57.631Z,42.53
2019-04-13T21:28:27.606Z,40.97
2019-04-13T21:30:57.780Z,36.73
2019-04-13T21:33:27.924Z,39.80
2019-04-13T21:35:57.857Z,36.00
2019-04-13T21:38:27.719Z,36.53
2019-04-13T21:40:57.855Z,37.37
2019-04-13T21:43:28.008Z,38.67
2019-04-13T21:45:58.005Z,38.70
2019-04-13T21:48:26.969Z,37.60
2019-04-13T21:51:10.438Z,38.43
2019-04-13T21:53:49.300Z,36.07
2019-04-13T21:56:18.728Z,38.07
2019-04-13T21:58:49.007Z,38.57
2019-04-13T22:01:56.513Z,37.80
2019-04-13T22:04:26.237Z,36.30
2019-04-13T22:06:56.098Z,35.97
2019-04-13T22:09:25.993Z,38.17
2019-04-13T22:11:56.186Z,35.67
2019-04-13T22:14:33.255Z,34.77
2019-04-13T22:16:56.492Z,36.93
2019-04-13T22:19:26.604Z,37.43
2019-04-13T22:21:56.793Z,37.33
2019-04-13T22:24:26.786Z,37.27
2019-04-13T22:26:56.545Z,37.77
2019-04-13T22:29:31.929Z,37.50
2019-04-13T22:32:10.713Z,38.77
2019-04-13T22:34:44.604Z,37.17
2019-04-13T22:37:14.586Z,35.30
2019-04-13T22:39:44.230Z,36.20
2019-04-13T22:42:14.498Z,36.40
2019-04-13T22:44:50.865Z,36.10
2019-04-13T22:47:14.869Z,37.17
2019-04-13T22:49:58.186Z,36.13
2019-04-13T22:52:47.364Z,35.60
2019-04-13T22:55:44.892Z,37.97
2019-04-13T22:58:13.974Z,39.30
2019-04-13T23:00:54.173Z,39.70
2019-04-13T23:03:24.176Z,38.97
2019-04-13T23:05:53.162Z,36.57
2019-04-13T23:08:22.807Z,36.60
2019-04-13T23:10:52.957Z,35.27
2019-04-13T23:13:23.163Z,40.73
2019-04-13T23:15:53.374Z,35.80
2019-04-13T23:18:23.252Z,30.37
2019-04-13T23:20:52.313Z,33.63
2019-04-13T23:23:22.241Z,32.07
2019-04-13T23:25:51.172Z,32.40
2019-04-13T23:28:20.701Z,31.47
2019-04-13T23:30:50.995Z,31.13
2019-04-13T23:33:21.293Z,30.43
2019-04-13T23:35:50.424Z,34.13
2019-04-13T23:38:20.248Z,33.67
2019-04-13T23:40:49.498Z,37.50
2019-04-13T23:43:19.638Z,35.00
2019-04-13T23:45:49.300Z,32.20
2019-04-13T23:48:18.404Z,29.80
2019-04-13T23:50:48.143Z,32.37
2019-04-13T23:53:18.281Z,29.87
2019-04-13T23:55:55.468Z,30.83
2019-04-13T23:58:43.476Z,32.70
